KCLM/CLM METAR and TAF weather

Enter ICAO airport designator
Station Type Date Time Source
KCLM METAR 2018/12/10 16:53 UTC NOAA

KCLM 101653Z AUTO 19003KT 10SM BKN070 OVC085 06/04 A3022 RMK AO2 RAE02 SLP235 P0000 T00560044


Station Type Date Time Source
KCLM Decoded METAR 2018/12/10 16:53 UTC NOAA

PORT ANGELES FAIRCHILD INTERNATIONAL , WA, United States (KCLM) 48-07N 123-30W 85M
Dec 10, 2018 - 11:53 AM EST / 2018.12.10 1653 UTC
Wind: from the S (190 degrees) at 3 MPH (3 KT):0
Visibility: 10 mile(s):0
Sky conditions: overcast
Precipitation last hour: A trace
Temperature: 42.1 F (5.6 C)
Dew Point: 39.9 F (4.4 C)
Relative Humidity: 91%
Pressure (altimeter): 30.22 in. Hg (1023 hPa)
ob: KCLM 101653Z AUTO 19003KT 10SM BKN070 OVC085 06/04 A3022 RMK AO2 RAE02 SLP235 P0000 T00560044
cycle: 17

Station Type Date Time Source
KCLM TAF 2018/12/10 18:22 UTC NOAA

TAF KCLM 101720Z 1018/1118 VRB03KT P6SM BKN050
FM110800 09006KT P6SM -RA OVC040
FM111200 VRB06KT 5SM -RA BR OVC025


Example: see airport list